createdAt,value
2019-04-28T00:01:34.080Z,75.60
2019-04-28T00:04:03.424Z,75.70
2019-04-28T00:06:32.024Z,75.80
2019-04-28T00:09:01.775Z,75.50
2019-04-28T00:11:31.698Z,75.90
2019-04-28T00:14:01.859Z,75.80
2019-04-28T00:16:31.281Z,75.40
2019-04-28T00:19:01.149Z,75.80
2019-04-28T00:21:31.929Z,75.60
2019-04-28T00:24:18.513Z,76.90
2019-04-28T00:26:54.345Z,76.20
2019-04-28T00:29:22.731Z,75.60
2019-04-28T00:31:51.361Z,75.10
2019-04-28T00:34:21.236Z,76.20
2019-04-28T00:36:51.504Z,76.70
2019-04-28T00:39:21.188Z,76.70
2019-04-28T00:41:51.604Z,77.00
2019-04-28T00:44:21.810Z,77.60
2019-04-28T00:46:51.153Z,77.20
2019-04-28T00:49:21.505Z,77.30
2019-04-28T00:51:51.505Z,76.20
2019-04-28T00:54:21.719Z,77.40
2019-04-28T00:56:51.741Z,78.20
2019-04-28T00:59:21.707Z,78.40
2019-04-28T01:01:54.919Z,78.50
2019-04-28T01:04:23.372Z,78.70
2019-04-28T01:06:52.075Z,79.00
2019-04-28T01:09:21.862Z,79.10
2019-04-28T01:11:51.108Z,79.70
2019-04-28T01:14:21.333Z,79.20
2019-04-28T01:16:59.757Z,79.00
2019-04-28T01:19:30.175Z,79.40
2019-04-28T01:22:10.312Z,79.20
2019-04-28T01:24:39.929Z,78.70
2019-04-28T01:27:10.355Z,80.10
2019-04-28T01:29:40.284Z,79.70
2019-04-28T01:32:25.415Z,80.00
2019-04-28T01:34:53.940Z,79.90
2019-04-28T01:37:22.326Z,79.90
2019-04-28T01:39:50.793Z,80.60
2019-04-28T01:42:20.369Z,80.60
2019-04-28T01:44:49.469Z,80.90
2019-04-28T01:47:18.134Z,81.00
2019-04-28T01:49:46.669Z,81.80
2019-04-28T01:52:15.113Z,81.90
2019-04-28T01:54:43.481Z,82.20
2019-04-28T01:57:11.897Z,81.80
2019-04-28T01:59:40.496Z,82.30
2019-04-28T02:02:10.158Z,82.60
2019-04-28T02:04:40.238Z,82.80
2019-04-28T02:07:10.869Z,82.60
2019-04-28T02:09:39.523Z,82.20
2019-04-28T02:12:08.125Z,82.30
2019-04-28T02:14:36.653Z,82.90
2019-04-28T02:17:05.180Z,83.30
2019-04-28T02:19:33.578Z,82.50
2019-04-28T02:22:12.471Z,83.50
2019-04-28T02:24:40.933Z,83.20
2019-04-28T02:27:10.552Z,83.60
2019-04-28T02:29:41.438Z,83.50
2019-04-28T02:32:11.038Z,83.30
2019-04-28T02:34:41.041Z,82.80
2019-04-28T02:37:11.241Z,83.30
2019-04-28T02:39:40.892Z,83.10
2019-04-28T02:42:10.952Z,83.80
2019-04-28T02:44:40.486Z,83.80
2019-04-28T02:47:10.722Z,83.70
2019-04-28T02:49:40.890Z,84.00
2019-04-28T02:52:31.088Z,84.50
2019-04-28T02:55:03.261Z,84.10
2019-04-28T02:57:30.693Z,84.10
2019-04-28T03:00:00.489Z,84.30
2019-04-28T03:02:31.683Z,85.40
2019-04-28T03:05:00.356Z,85.00
2019-04-28T03:07:31.185Z,84.00
2019-04-28T03:10:03.099Z,84.70
2019-04-28T03:12:31.503Z,85.30
2019-04-28T03:15:00.572Z,86.00
2019-04-28T03:17:30.925Z,85.00
2019-04-28T03:20:00.988Z,84.90
2019-04-28T03:22:31.231Z,85.00
2019-04-28T03:25:01.408Z,85.60
2019-04-28T03:27:37.194Z,84.70
2019-04-28T03:30:13.342Z,84.90
2019-04-28T03:32:52.213Z,85.40
2019-04-28T03:35:13.385Z,85.50
2019-04-28T03:37:41.944Z,85.40
2019-04-28T03:40:11.474Z,85.40
2019-04-28T03:42:41.115Z,84.70
2019-04-28T03:45:11.426Z,85.40
2019-04-28T03:47:40.681Z,85.30
2019-04-28T03:50:10.527Z,85.30
2019-04-28T03:52:41.369Z,85.00
2019-04-28T03:55:11.089Z,85.20
2019-04-28T03:57:41.232Z,85.00
2019-04-28T04:00:10.972Z,85.20
2019-04-28T04:02:41.184Z,84.30
2019-04-28T04:05:11.184Z,84.30
2019-04-28T04:07:42.722Z,84.20
2019-04-28T04:10:16.042Z,83.80
2019-04-28T04:12:50.863Z,83.90
2019-04-28T04:15:25.239Z,84.10
2019-04-28T04:18:11.187Z,82.70
2019-04-28T04:20:40.870Z,83.20
2019-04-28T04:23:11.264Z,83.20
2019-04-28T04:25:41.677Z,84.10
2019-04-28T04:28:10.595Z,83.50
2019-04-28T04:30:40.936Z,83.10
2019-04-28T04:33:11.034Z,82.50
2019-04-28T04:35:41.123Z,81.90
2019-04-28T04:38:10.557Z,82.00
2019-04-28T04:40:41.374Z,81.00
2019-04-28T04:43:11.211Z,80.40
2019-04-28T04:45:40.486Z,81.00
2019-04-28T04:48:11.350Z,80.50
2019-04-28T04:50:41.138Z,80.00
2019-04-28T04:53:11.023Z,80.00
2019-04-28T04:55:40.866Z,79.20
2019-04-28T04:58:10.768Z,78.80
2019-04-28T05:00:51.021Z,79.20
2019-04-28T05:03:21.432Z,78.80
2019-04-28T05:05:50.247Z,78.30
2019-04-28T05:08:20.262Z,78.10
2019-04-28T05:10:50.323Z,77.80
2019-04-28T05:13:20.059Z,78.10
2019-04-28T05:15:48.577Z,77.30
2019-04-28T05:18:17.042Z,77.80
2019-04-28T05:20:45.416Z,77.40
2019-04-28T05:23:15.509Z,77.10
2019-04-28T05:25:44.537Z,75.90
2019-04-28T05:28:12.908Z,76.40
2019-04-28T05:30:43.030Z,76.20
2019-04-28T05:33:13.270Z,75.50
2019-04-28T05:35:41.768Z,74.80
2019-04-28T05:38:10.144Z,74.90
2019-04-28T05:40:39.904Z,73.80
2019-04-28T05:43:08.440Z,73.60
2019-04-28T05:45:36.958Z,72.60
2019-04-28T05:48:05.424Z,72.60
2019-04-28T05:50:35.451Z,72.00
2019-04-28T05:53:08.102Z,71.50
2019-04-28T05:55:39.383Z,71.30
2019-04-28T05:58:30.061Z,71.10
2019-04-28T06:01:00.391Z,70.50
2019-04-28T06:03:30.494Z,70.40
2019-04-28T06:05:59.941Z,69.10
2019-04-28T06:08:32.876Z,68.20
2019-04-28T06:11:02.890Z,68.20
2019-04-28T06:13:31.375Z,67.80
2019-04-28T06:15:59.919Z,67.70
2019-04-28T06:18:28.410Z,67.10
2019-04-28T06:20:56.920Z,65.90
2019-04-28T06:23:25.346Z,65.10
2019-04-28T06:25:53.799Z,64.70
2019-04-28T06:28:22.178Z,64.50
2019-04-28T06:30:50.645Z,63.70
2019-04-28T06:33:19.100Z,63.00
2019-04-28T06:35:47.623Z,62.80
2019-04-28T06:38:16.087Z,63.50
2019-04-28T06:40:44.565Z,62.60
2019-04-28T06:43:12.946Z,62.10
2019-04-28T06:45:41.332Z,61.40
2019-04-28T06:48:09.797Z,60.30
2019-04-28T06:50:38.316Z,60.00
2019-04-28T06:53:06.858Z,59.40
2019-04-28T06:55:35.459Z,58.30
2019-04-28T06:58:03.975Z,57.70
2019-04-28T07:00:32.383Z,57.90
2019-04-28T07:03:00.761Z,57.70
2019-04-28T07:05:29.219Z,58.30
2019-04-28T07:07:57.616Z,56.60
2019-04-28T07:10:26.080Z,56.90
2019-04-28T07:12:54.533Z,56.50
2019-04-28T07:15:23.141Z,56.30
2019-04-28T07:17:51.593Z,55.80
2019-04-28T07:20:38.172Z,53.80
2019-04-28T07:23:07.190Z,54.10
2019-04-28T07:25:35.584Z,53.20
2019-04-28T07:28:04.437Z,53.70
2019-04-28T07:30:33.022Z,53.00
2019-04-28T07:33:01.557Z,50.90
2019-04-28T07:35:29.929Z,49.40
2019-04-28T07:37:58.406Z,49.10
2019-04-28T07:40:26.998Z,47.00
2019-04-28T07:42:55.478Z,46.90
2019-04-28T07:45:23.950Z,47.10
2019-04-28T07:47:52.411Z,45.40
2019-04-28T07:50:20.877Z,43.50
2019-04-28T07:52:59.897Z,43.00
2019-04-28T07:55:28.296Z,42.50
2019-04-28T07:57:57.662Z,42.00
2019-04-28T08:00:30.898Z,41.20
2019-04-28T08:02:59.272Z,39.90
2019-04-28T08:05:27.653Z,39.40
2019-04-28T08:07:56.127Z,39.90
2019-04-28T08:10:24.657Z,39.10
2019-04-28T08:12:53.117Z,37.40
2019-04-28T08:15:21.511Z,35.80
2019-04-28T08:17:49.970Z,35.10
2019-04-28T08:20:18.492Z,35.40
2019-04-28T08:22:46.967Z,34.70
2019-04-28T08:25:15.417Z,36.00
2019-04-28T08:27:43.796Z,34.40
2019-04-28T08:30:12.198Z,33.10
2019-04-28T08:32:42.224Z,32.80
2019-04-28T08:35:10.693Z,32.70
2019-04-28T08:37:39.224Z,34.40
2019-04-28T08:40:07.956Z,33.30
2019-04-28T08:42:36.510Z,31.60
2019-04-28T08:45:07.397Z,31.20
2019-04-28T08:47:35.854Z,31.50
2019-04-28T08:50:04.971Z,30.30
2019-04-28T08:52:33.563Z,30.70
2019-04-28T08:55:02.098Z,30.70
2019-04-28T08:57:30.706Z,30.00
2019-04-28T08:59:59.098Z,29.30
2019-04-28T09:02:27.610Z,29.50
2019-04-28T09:04:56.019Z,29.80
2019-04-28T09:07:24.470Z,29.40
2019-04-28T09:09:52.931Z,29.00
2019-04-28T09:12:21.392Z,29.00
2019-04-28T09:14:49.873Z,28.60
2019-04-28T09:17:18.493Z,28.40
2019-04-28T09:19:46.941Z,28.00
2019-04-28T09:22:15.441Z,28.80
2019-04-28T09:24:43.808Z,28.60
2019-04-28T09:27:12.290Z,28.50
2019-04-28T09:29:40.748Z,28.30
2019-04-28T09:32:09.344Z,28.50
2019-04-28T09:34:37.881Z,28.90
2019-04-28T09:37:06.469Z,28.40
2019-04-28T09:39:48.273Z,29.20
2019-04-28T09:42:30.326Z,27.90
2019-04-28T09:45:01.339Z,26.30
2019-04-28T09:47:29.983Z,26.90
2019-04-28T09:49:58.552Z,26.80
2019-04-28T09:52:27.057Z,28.40
2019-04-28T09:54:55.715Z,28.00
2019-04-28T09:57:24.204Z,26.20
2019-04-28T09:59:52.658Z,26.00
2019-04-28T10:02:21.256Z,25.80
2019-04-28T10:04:49.585Z,26.30
2019-04-28T10:07:18.148Z,26.70
2019-04-28T10:09:46.616Z,25.40
2019-04-28T10:12:26.559Z,25.70
2019-04-28T10:14:45.264Z,25.90
2019-04-28T10:17:13.736Z,24.90
2019-04-28T10:19:42.183Z,26.50
2019-04-28T10:22:10.734Z,24.80
2019-04-28T10:24:39.336Z,25.00
2019-04-28T10:27:08.464Z,25.80
2019-04-28T10:29:37.060Z,27.00
2019-04-28T10:32:05.589Z,27.50
2019-04-28T10:34:34.144Z,26.90
2019-04-28T10:37:02.668Z,26.30
2019-04-28T10:39:41.590Z,27.40
2019-04-28T10:42:10.058Z,26.20
2019-04-28T10:44:40.178Z,26.00
2019-04-28T10:47:08.638Z,26.20
2019-04-28T10:49:37.033Z,25.40
2019-04-28T10:52:05.501Z,25.00
2019-04-28T10:54:33.976Z,25.90
2019-04-28T10:57:02.434Z,27.40
2019-04-28T10:59:30.904Z,26.30
2019-04-28T11:01:59.498Z,25.50
2019-04-28T11:04:47.811Z,25.70
2019-04-28T11:07:17.489Z,25.80
2019-04-28T11:09:47.815Z,25.60
2019-04-28T11:12:26.957Z,25.10
2019-04-28T11:14:55.350Z,25.50
2019-04-28T11:17:24.620Z,24.70
2019-04-28T11:19:53.117Z,24.70
2019-04-28T11:22:21.597Z,24.80
2019-04-28T11:24:49.994Z,25.20
2019-04-28T11:27:20.434Z,24.30
2019-04-28T11:29:48.866Z,24.70
2019-04-28T11:32:17.390Z,25.20
2019-04-28T11:34:50.316Z,25.20
2019-04-28T11:37:18.838Z,25.10
2019-04-28T11:39:47.447Z,24.50
2019-04-28T11:42:16.001Z,24.10
2019-04-28T11:44:44.585Z,24.30
2019-04-28T11:47:14.622Z,24.40
2019-04-28T11:49:43.075Z,24.50
2019-04-28T11:52:11.621Z,25.20
2019-04-28T11:54:40.081Z,24.70
2019-04-28T11:57:08.538Z,25.20
2019-04-28T11:59:37.082Z,25.10
2019-04-28T12:02:06.256Z,24.00
2019-04-28T12:04:34.797Z,25.10
2019-04-28T12:07:03.188Z,26.60
2019-04-28T12:09:39.218Z,26.40
2019-04-28T12:12:24.065Z,26.50
2019-04-28T12:15:00.345Z,25.70
2019-04-28T12:18:01.663Z,26.20
2019-04-28T12:20:30.217Z,26.10
2019-04-28T12:22:58.743Z,27.10
2019-04-28T12:25:27.197Z,26.20
2019-04-28T12:27:55.673Z,25.10
2019-04-28T12:30:24.214Z,25.30
2019-04-28T12:32:52.680Z,25.50
2019-04-28T12:35:21.149Z,25.60
2019-04-28T12:37:49.737Z,25.90
2019-04-28T12:40:18.208Z,26.50
2019-04-28T12:42:46.667Z,26.70
2019-04-28T12:45:15.125Z,26.30
2019-04-28T12:47:43.588Z,27.40
2019-04-28T12:50:16.453Z,28.00
2019-04-28T12:52:45.232Z,27.90
2019-04-28T12:55:13.770Z,27.90
2019-04-28T12:57:44.099Z,28.80
2019-04-28T13:00:26.628Z,29.20
2019-04-28T13:03:12.827Z,28.40
2019-04-28T13:05:42.861Z,29.90
2019-04-28T13:08:11.410Z,29.90
2019-04-28T13:10:40.019Z,29.70
2019-04-28T13:13:08.489Z,29.50
2019-04-28T13:15:36.948Z,29.50
2019-04-28T13:18:05.429Z,31.80
2019-04-28T13:20:33.962Z,31.90
2019-04-28T13:23:02.384Z,33.10
2019-04-28T13:25:30.923Z,33.80
2019-04-28T13:27:59.447Z,32.70
2019-04-28T13:30:28.051Z,35.70
2019-04-28T13:32:56.508Z,35.60
2019-04-28T13:35:25.061Z,33.90
2019-04-28T13:37:53.666Z,34.40
2019-04-28T13:40:26.530Z,35.80
2019-04-28T13:42:55.006Z,35.40
2019-04-28T13:45:25.257Z,35.80
2019-04-28T13:47:53.658Z,35.80
2019-04-28T13:50:38.325Z,35.90
2019-04-28T13:53:07.058Z,36.20
2019-04-28T13:55:46.232Z,36.10
2019-04-28T13:58:16.629Z,37.00
2019-04-28T14:00:55.522Z,37.10
2019-04-28T14:03:44.044Z,37.00
2019-04-28T14:06:27.212Z,36.20
2019-04-28T14:08:44.300Z,37.10
2019-04-28T14:11:13.069Z,35.20
2019-04-28T14:13:41.580Z,36.40
2019-04-28T14:16:10.209Z,36.30
2019-04-28T14:18:38.893Z,36.70
2019-04-28T14:21:07.969Z,36.80
2019-04-28T14:23:36.564Z,37.00
2019-04-28T14:26:05.247Z,38.20
2019-04-28T14:28:33.746Z,37.40
2019-04-28T14:31:02.258Z,37.30
2019-04-28T14:33:30.660Z,37.60
2019-04-28T14:35:59.041Z,37.10
2019-04-28T14:38:27.504Z,37.70
2019-04-28T14:40:55.994Z,37.40
2019-04-28T14:43:24.426Z,37.80
2019-04-28T14:45:52.966Z,37.90
2019-04-28T14:48:21.604Z,37.80
2019-04-28T14:50:50.167Z,37.60
2019-04-28T14:53:18.725Z,37.50
2019-04-28T14:55:47.220Z,37.80
2019-04-28T14:58:15.740Z,37.90
2019-04-28T15:00:48.544Z,37.60
2019-04-28T15:03:18.240Z,36.60
2019-04-28T15:05:51.311Z,35.20
2019-04-28T15:08:21.352Z,34.60
2019-04-28T15:10:54.160Z,33.90
2019-04-28T15:13:23.439Z,34.30
2019-04-28T15:15:52.125Z,34.40
2019-04-28T15:18:20.597Z,34.80
2019-04-28T15:20:49.050Z,34.80
2019-04-28T15:23:17.484Z,34.80
2019-04-28T15:25:45.945Z,35.50
2019-04-28T15:28:14.500Z,35.30
2019-04-28T15:30:43.029Z,34.70
2019-04-28T15:33:11.619Z,36.30
2019-04-28T15:35:40.225Z,36.60
2019-04-28T15:38:08.855Z,36.90
2019-04-28T15:40:37.318Z,37.90
2019-04-28T15:43:05.697Z,37.60
2019-04-28T15:45:34.088Z,37.80
2019-04-28T15:48:02.622Z,39.30
2019-04-28T15:50:31.086Z,39.70
2019-04-28T15:52:59.571Z,40.40
2019-04-28T15:55:29.724Z,41.00
2019-04-28T15:57:59.906Z,41.90
2019-04-28T16:00:28.433Z,43.40
2019-04-28T16:02:57.033Z,44.60
2019-04-28T16:05:25.496Z,45.30
2019-04-28T16:07:53.884Z,45.50
2019-04-28T16:10:22.349Z,45.90
2019-04-28T16:12:50.886Z,45.90
2019-04-28T16:15:19.493Z,46.60
2019-04-28T16:17:47.957Z,46.70
2019-04-28T16:20:16.412Z,47.00
2019-04-28T16:22:44.960Z,47.20
2019-04-28T16:25:13.358Z,47.40
2019-04-28T16:27:41.910Z,48.20
2019-04-28T16:30:10.447Z,48.30
2019-04-28T16:32:38.827Z,48.10
2019-04-28T16:35:07.385Z,48.40
2019-04-28T16:37:38.920Z,49.00
2019-04-28T16:40:09.327Z,48.80
2019-04-28T16:42:36.804Z,49.50
2019-04-28T16:45:06.237Z,49.70
2019-04-28T16:47:34.625Z,49.30
2019-04-28T16:50:03.921Z,50.00
2019-04-28T16:52:32.324Z,50.00
2019-04-28T16:55:17.463Z,50.10
2019-04-28T16:57:53.389Z,50.80
2019-04-28T17:00:32.243Z,51.30
2019-04-28T17:03:00.773Z,51.30
2019-04-28T17:05:29.345Z,52.20
2019-04-28T17:07:57.895Z,52.60
2019-04-28T17:10:26.378Z,53.00
2019-04-28T17:12:54.905Z,53.10
2019-04-28T17:15:23.428Z,53.60
2019-04-28T17:17:51.945Z,54.10
2019-04-28T17:20:20.494Z,54.50
2019-04-28T17:22:48.883Z,55.00
2019-04-28T17:25:17.253Z,55.80
2019-04-28T17:27:45.709Z,55.90
2019-04-28T17:30:14.229Z,55.50
2019-04-28T17:32:43.159Z,56.00
2019-04-28T17:35:11.623Z,56.60
2019-04-28T17:37:40.158Z,56.80
2019-04-28T17:40:08.600Z,56.90
2019-04-28T17:42:37.138Z,57.30
2019-04-28T17:45:07.152Z,57.50
2019-04-28T17:47:35.693Z,58.30
2019-04-28T17:50:04.980Z,57.60
2019-04-28T17:52:33.492Z,59.10
2019-04-28T17:55:01.964Z,60.00
2019-04-28T17:57:30.350Z,60.10
2019-04-28T18:00:00.524Z,60.50
2019-04-28T18:02:48.683Z,61.10
2019-04-28T18:05:27.542Z,61.00
2019-04-28T18:07:57.493Z,61.40
2019-04-28T18:10:25.953Z,61.70
2019-04-28T18:13:00.692Z,61.70
2019-04-28T18:15:26.194Z,61.30
2019-04-28T18:17:56.366Z,61.60
2019-04-28T18:20:24.820Z,61.30
2019-04-28T18:22:53.689Z,63.10
2019-04-28T18:25:22.251Z,64.10
2019-04-28T18:27:50.748Z,64.10
2019-04-28T18:30:20.790Z,65.20
2019-04-28T18:33:07.191Z,65.70
2019-04-28T18:35:37.238Z,66.60
2019-04-28T18:38:16.215Z,66.20
2019-04-28T18:40:46.238Z,66.50
2019-04-28T18:43:16.321Z,66.40
2019-04-28T18:45:44.804Z,66.10
2019-04-28T18:48:13.176Z,66.50
2019-04-28T18:50:41.646Z,66.10
2019-04-28T18:53:10.105Z,66.60
2019-04-28T18:55:38.536Z,68.00
2019-04-28T18:58:07.005Z,67.00
2019-04-28T19:00:37.095Z,67.20
2019-04-28T19:03:05.638Z,69.20
2019-04-28T19:05:35.730Z,68.40
2019-04-28T19:08:05.766Z,69.20
2019-04-28T19:10:47.769Z,69.10
2019-04-28T19:13:17.796Z,70.10
2019-04-28T19:15:53.894Z,70.50
2019-04-28T19:18:42.185Z,69.90
2019-04-28T19:21:10.778Z,70.50
2019-04-28T19:23:39.226Z,70.20
2019-04-28T19:26:07.892Z,72.90
2019-04-28T19:28:36.405Z,72.30
2019-04-28T19:31:04.873Z,73.90
2019-04-28T19:33:33.267Z,71.60
2019-04-28T19:36:01.713Z,72.20
2019-04-28T19:38:30.172Z,73.30
2019-04-28T19:40:58.764Z,73.60
2019-04-28T19:43:27.309Z,74.10
2019-04-28T19:45:57.337Z,75.10
2019-04-28T19:48:26.069Z,74.90
2019-04-28T19:50:54.464Z,75.70
2019-04-28T19:53:23.046Z,77.90
2019-04-28T19:55:55.883Z,77.00
2019-04-28T19:58:28.606Z,78.40
2019-04-28T20:00:58.706Z,77.90
2019-04-28T20:03:27.222Z,76.90
2019-04-28T20:05:55.762Z,77.20
2019-04-28T20:08:24.291Z,76.80
2019-04-28T20:10:52.785Z,77.90
2019-04-28T20:13:21.236Z,80.10
2019-04-28T20:15:49.772Z,80.20
2019-04-28T20:18:18.325Z,79.00
2019-04-28T20:20:46.676Z,77.80
2019-04-28T20:23:15.139Z,80.20
2019-04-28T20:25:43.626Z,78.70
2019-04-28T20:28:12.092Z,78.30
2019-04-28T20:30:40.623Z,79.50
2019-04-28T20:33:09.278Z,79.00
2019-04-28T20:35:48.533Z,82.00
2019-04-28T20:38:18.690Z,81.10
2019-04-28T20:40:51.502Z,78.30
2019-04-28T20:43:21.587Z,79.70
2019-04-28T20:45:49.973Z,80.10
2019-04-28T20:48:18.439Z,81.50
2019-04-28T20:50:46.812Z,79.70
2019-04-28T20:53:15.285Z,83.40
2019-04-28T20:55:43.654Z,81.20
2019-04-28T20:58:12.124Z,81.80
2019-04-28T21:00:40.640Z,82.60
2019-04-28T21:03:09.090Z,83.30
2019-04-28T21:05:37.689Z,83.80
2019-04-28T21:08:06.125Z,85.70
2019-04-28T21:10:38.108Z,83.80
2019-04-28T21:13:04.876Z,84.10
2019-04-28T21:15:33.393Z,85.70
2019-04-28T21:18:01.976Z,84.80
2019-04-28T21:20:30.485Z,82.40
2019-04-28T21:22:59.013Z,84.30
2019-04-28T21:25:27.475Z,85.30
2019-04-28T21:27:55.914Z,83.70
2019-04-28T21:30:24.337Z,86.00
2019-04-28T21:32:52.864Z,87.20
2019-04-28T21:35:21.313Z,87.70
2019-04-28T21:37:49.697Z,86.20
2019-04-28T21:40:18.946Z,85.00
2019-04-28T21:42:57.963Z,83.90
2019-04-28T21:45:44.855Z,85.80
2019-04-28T21:48:14.949Z,85.40
2019-04-28T21:50:43.429Z,88.30
2019-04-28T21:53:11.817Z,86.40
2019-04-28T21:55:40.281Z,88.10
2019-04-28T21:58:08.804Z,87.60
2019-04-28T22:00:42.097Z,86.30
2019-04-28T22:03:10.695Z,86.90
2019-04-28T22:05:39.205Z,87.00
2019-04-28T22:08:07.740Z,88.10
2019-04-28T22:10:36.195Z,89.80
2019-04-28T22:13:04.657Z,87.30
2019-04-28T22:15:33.155Z,87.60
2019-04-28T22:18:01.630Z,87.00
2019-04-28T22:20:30.092Z,86.60
2019-04-28T22:23:00.104Z,88.00
2019-04-28T22:25:28.644Z,89.10
2019-04-28T22:27:57.033Z,87.30
2019-04-28T22:30:25.493Z,89.00
2019-04-28T22:32:53.958Z,88.90
2019-04-28T22:35:22.543Z,88.80
2019-04-28T22:37:51.013Z,87.50
2019-04-28T22:40:19.473Z,89.40
2019-04-28T22:42:47.984Z,90.00
2019-04-28T22:45:16.437Z,89.90
2019-04-28T22:47:44.884Z,89.00
2019-04-28T22:50:34.798Z,90.20
2019-04-28T22:53:03.385Z,90.10
2019-04-28T22:55:33.469Z,90.70
2019-04-28T22:58:19.644Z,90.00
2019-04-28T23:00:58.367Z,89.60
2019-04-28T23:03:28.396Z,88.60
2019-04-28T23:05:56.845Z,90.10
2019-04-28T23:08:25.234Z,90.70
2019-04-28T23:10:53.682Z,90.00
2019-04-28T23:13:22.243Z,90.50
2019-04-28T23:15:50.770Z,90.00
2019-04-28T23:18:19.219Z,88.70
2019-04-28T23:20:52.287Z,89.60
2019-04-28T23:23:20.761Z,89.00
2019-04-28T23:25:49.116Z,90.20
2019-04-28T23:28:17.581Z,89.60
2019-04-28T23:30:46.697Z,90.60
2019-04-28T23:33:15.149Z,90.40
2019-04-28T23:35:43.533Z,90.40
2019-04-28T23:38:11.937Z,92.40
2019-04-28T23:40:41.952Z,91.70
2019-04-28T23:43:12.057Z,91.60
2019-04-28T23:45:40.509Z,91.30
2019-04-28T23:48:08.997Z,92.60
2019-04-28T23:50:39.089Z,90.90
2019-04-28T23:53:09.108Z,90.60
2019-04-28T23:55:37.494Z,91.00
2019-04-28T23:58:05.937Z,91.10
